Time;durP1;ratioP1;P1;durP2;ratioP2;P2;SDS_P1;SDS_P2;PMS_P1;PMS_P2;Temp;Humidity;BMP_temperature;BMP_pressure;BME280_temperature;BME280_humidity;BME280_pressure;Samples;Min_cycle;Max_cycle;Signal;HPM_P1;HPM_P2
2023/01/15 00:00:29;;;;;;;10.00;4.80;;;;;;;5.00;100.00;98691.86;266367;1276;22562;-80
2023/01/15 00:06:53;;;;;;;10.60;5.00;;;;;;;5.11;100.00;98691.52;267019;1279;117545;-81
2023/01/15 00:12:59;;;;;;;8.80;4.50;;;;;;;5.16;100.00;98688.19;266169;1280;22548;-82
2023/01/15 00:19:07;;;;;;;10.10;4.20;;;;;;;5.15;100.00;98681.88;267105;1279;23214;-83
2023/01/15 00:31:34;;;;;;;6.30;3.30;;;;;;;5.47;100.00;98669.16;266645;1279;23266;-82
2023/01/15 00:37:40;;;;;;;8.00;3.70;;;;;;;5.52;100.00;98662.45;266541;1279;22916;-83
2023/01/15 00:43:45;;;;;;;9.30;4.10;;;;;;;5.20;100.00;98652.14;266935;1279;22696;-83
2023/01/15 00:49:49;;;;;;;8.60;4.10;;;;;;;5.23;100.00;98649.69;267481;1279;25499;-83
2023/01/15 00:55:52;;;;;;;9.30;3.90;;;;;;;5.12;100.00;98629.52;267544;1280;24423;-83
2023/01/15 01:01:59;;;;;;;8.30;4.30;;;;;;;5.16;100.00;98616.44;266830;1279;22596;-84
2023/01/15 01:08:22;;;;;;;8.60;4.10;;;;;;;5.30;100.00;98608.88;267107;1279;22582;-84
2023/01/15 01:14:51;;;;;;;10.30;4.00;;;;;;;5.25;100.00;98600.06;267159;1279;25380;-83
2023/01/15 01:20:55;;;;;;;8.10;3.60;;;;;;;5.27;100.00;98594.86;267325;1275;22567;-83
2023/01/15 01:26:58;;;;;;;7.60;3.10;;;;;;;5.37;100.00;98583.94;267265;1279;24366;-83
2023/01/15 01:33:04;;;;;;;8.50;3.70;;;;;;;5.46;100.00;98565.53;267204;1279;23051;-84
2023/01/15 01:39:23;;;;;;;6.70;2.30;;;;;;;5.59;100.00;98551.29;267006;1279;24385;-85
2023/01/15 01:45:30;;;;;;;3.30;1.80;;;;;;;5.92;100.00;98533.02;267042;1279;26507;-84
2023/01/15 01:51:38;;;;;;;3.40;1.40;;;;;;;6.21;97.01;98526.15;266764;1279;22564;-84
2023/01/15 01:57:56;;;;;;;3.90;1.40;;;;;;;6.57;90.49;98512.69;267264;1279;22949;-85
2023/01/15 02:04:05;;;;;;;3.10;1.10;;;;;;;6.76;87.82;98497.02;267157;1279;22567;-86
2023/01/15 02:10:20;;;;;;;1.80;0.90;;;;;;;7.12;82.89;98487.91;267121;1279;24678;-87
2023/01/15 02:17:06;;;;;;;2.80;1.00;;;;;;;7.38;79.86;98485.77;267257;1279;22764;-86
2023/01/15 02:23:18;;;;;;;;;;;;;;;7.82;76.92;98484.09;267139;1279;24239;-86
2023/01/15 02:30:05;;;;;;;1.50;0.90;;;;;;;8.05;74.16;98476.10;267204;1279;22679;-84
2023/01/15 02:36:15;;;;;;;3.10;0.90;;;;;;;8.37;72.56;98469.95;267320;1279;22621;-83
2023/01/15 02:42:19;;;;;;;2.70;1.00;;;;;;;8.47;70.87;98465.00;267187;1279;23249;-83
2023/01/15 02:48:28;;;;;;;2.20;1.00;;;;;;;8.62;70.19;98474.36;267326;1279;24216;-83
2023/01/15 02:55:00;;;;;;;3.80;1.00;;;;;;;8.69;69.76;98467.17;267575;1280;22597;-84
2023/01/15 03:01:12;;;;;;;2.50;1.10;;;;;;;8.57;69.14;98458.71;267664;1279;22990;-84
2023/01/15 03:07:25;;;;;;;2.30;1.10;;;;;;;8.58;68.84;98461.25;267077;1279;23274;-84
2023/01/15 03:13:41;;;;;;;2.50;1.00;;;;;;;8.71;68.34;98471.14;267338;1279;22635;-84
2023/01/15 03:19:59;;;;;;;2.20;1.00;;;;;;;8.72;67.97;98460.18;267438;1279;22701;-86
2023/01/15 03:26:16;;;;;;;2.50;0.90;;;;;;;8.79;67.41;98462.48;267272;1279;25340;-86
2023/01/15 03:32:20;;;;;;;1.50;0.80;;;;;;;8.77;67.15;98458.79;267423;1279;24401;-85
2023/01/15 03:38:35;;;;;;;2.40;1.10;;;;;;;8.84;67.25;98442.91;267076;1279;22544;-85
2023/01/15 03:44:58;;;;;;;2.40;1.30;;;;;;;9.07;66.41;98441.59;267083;1274;22578;-85
2023/01/15 03:51:59;;;;;;;2.70;1.10;;;;;;;9.41;65.76;98437.55;267070;1280;22563;-84
2023/01/15 03:58:17;;;;;;;3.00;1.00;;;;;;;9.64;65.00;98432.14;266358;1279;25352;-82
2023/01/15 04:04:22;;;;;;;2.20;1.20;;;;;;;9.66;64.45;98417.30;266077;1279;22568;-82
2023/01/15 04:10:30;;;;;;;2.80;1.10;;;;;;;9.71;64.50;98409.22;266368;1279;22657;-82
2023/01/15 04:16:38;;;;;;;2.10;1.30;;;;;;;9.80;64.28;98401.02;266616;1279;24393;-84
2023/01/15 04:22:44;;;;;;;2.20;1.20;;;;;;;9.84;63.81;98389.58;267251;1277;23324;-83
2023/01/15 04:28:56;;;;;;;1.80;1.10;;;;;;;9.93;64.04;98377.66;267470;1279;22652;-84
2023/01/15 04:34:59;;;;;;;1.90;1.00;;;;;;;9.75;64.11;98369.95;267140;1279;23122;-84
2023/01/15 04:47:24;;;;;;;2.40;1.30;;;;;;;10.04;63.28;98350.71;267287;1279;22651;-86
2023/01/15 04:53:41;;;;;;;2.40;1.10;;;;;;;10.12;62.91;98337.29;267422;1271;22543;-85
2023/01/15 04:59:52;;;;;;;4.20;1.10;;;;;;;10.09;62.55;98328.27;267055;1279;22696;-84
2023/01/15 05:06:13;;;;;;;2.20;1.20;;;;;;;10.06;62.64;98319.96;267228;1279;25340;-84
2023/01/15 05:12:19;;;;;;;2.40;1.30;;;;;;;10.11;62.82;98309.92;266810;1279;24240;-85
2023/01/15 05:18:22;;;;;;;2.30;1.00;;;;;;;10.05;62.99;98301.26;266927;1279;24762;-85
2023/01/15 05:24:30;;;;;;;2.40;1.20;;;;;;;10.11;62.96;98287.04;266928;1280;24263;-84
2023/01/15 05:30:44;;;;;;;3.20;1.20;;;;;;;10.09;62.86;98278.16;267257;1279;22573;-88
2023/01/15 05:36:50;;;;;;;2.40;1.10;;;;;;;10.22;62.92;98273.20;267302;1279;22534;-83
2023/01/15 05:42:55;;;;;;;2.00;1.10;;;;;;;10.28;62.62;98271.02;266557;1279;22546;-84
2023/01/15 05:49:03;;;;;;;3.20;1.20;;;;;;;10.32;62.57;98266.16;267124;1279;22722;-84
2023/01/15 05:55:06;;;;;;;2.10;1.20;;;;;;;10.30;62.32;98252.98;267251;1279;22585;-84
2023/01/15 06:01:10;;;;;;;1.90;1.20;;;;;;;10.37;61.96;98253.06;267052;1279;24514;-85
2023/01/15 06:07:13;;;;;;;2.20;1.30;;;;;;;10.49;61.67;98247.60;267248;1279;23434;-84
2023/01/15 06:13:16;;;;;;;2.00;1.10;;;;;;;10.45;61.57;98243.62;266489;1279;22621;-86
2023/01/15 06:19:19;;;;;;;2.50;1.10;;;;;;;10.52;61.29;98242.74;267333;1279;25444;-83
2023/01/15 06:25:22;;;;;;;1.80;1.00;;;;;;;10.63;61.02;98243.79;266396;1279;22602;-86
2023/01/15 06:31:28;;;;;;;2.60;1.30;;;;;;;10.69;60.76;98239.23;267161;1280;24273;-87
2023/01/15 06:37:31;;;;;;;3.10;1.10;;;;;;;10.84;60.62;98232.31;267027;1280;22624;-87
2023/01/15 06:49:57;;;;;;;2.60;1.10;;;;;;;10.98;59.97;98242.77;266348;1274;22680;-85
2023/01/15 06:56:03;;;;;;;3.30;1.10;;;;;;;11.03;59.73;98240.84;266017;1257;23350;-84
2023/01/15 07:02:06;;;;;;;2.10;1.10;;;;;;;11.04;59.68;98226.36;265754;1281;24742;-83
2023/01/15 07:08:09;;;;;;;2.60;1.20;;;;;;;11.11;59.47;98226.86;266174;1280;25322;-83
2023/01/15 07:14:12;;;;;;;2.10;1.10;;;;;;;11.16;59.59;98225.77;266010;1280;24381;-82
2023/01/15 07:20:20;;;;;;;2.30;1.10;;;;;;;11.21;59.16;98225.34;265885;1274;22587;-83
2023/01/15 07:26:23;;;;;;;1.80;0.90;;;;;;;11.35;59.05;98225.79;266133;1280;23023;-83
2023/01/15 07:32:26;;;;;;;2.00;0.90;;;;;;;11.51;58.75;98230.82;266029;1279;24245;-83
2023/01/15 07:38:29;;;;;;;2.30;1.30;;;;;;;11.47;58.47;98224.65;266073;1279;22586;-83
2023/01/15 07:50:53;;;;;;;2.50;1.30;;;;;;;11.64;57.96;98223.86;266170;1279;24403;-83
2023/01/15 07:56:56;;;;;;;3.30;1.40;;;;;;;11.70;57.86;98224.02;266492;1279;22791;-83
2023/01/15 08:03:00;;;;;;;2.30;1.10;;;;;;;11.95;57.56;98224.12;266252;1279;25248;-83
2023/01/15 08:09:03;;;;;;;2.30;1.10;;;;;;;12.20;56.82;98220.46;266310;1272;22535;-83
2023/01/15 08:15:11;;;;;;;2.40;1.10;;;;;;;12.61;56.38;98215.02;266361;1279;23333;-84
2023/01/15 08:21:14;;;;;;;1.90;1.10;;;;;;;12.88;56.01;98211.38;266647;1280;24247;-82
2023/01/15 08:27:17;;;;;;;2.30;1.10;;;;;;;12.99;56.05;98204.28;266182;1274;24275;-82
2023/01/15 08:33:20;;;;;;;2.90;1.20;;;;;;;12.97;55.42;98205.56;266136;1266;22574;-82
2023/01/15 08:39:26;;;;;;;2.20;1.20;;;;;;;13.04;55.47;98201.75;266649;1280;22603;-85
2023/01/15 08:45:29;;;;;;;2.40;1.30;;;;;;;13.12;55.13;98205.38;267346;1280;24261;-82
2023/01/15 08:51:32;;;;;;;4.00;1.30;;;;;;;13.29;54.94;98202.73;266059;1280;26490;-81
2023/01/15 08:57:37;;;;;;;2.40;1.00;;;;;;;13.44;54.73;98198.39;266402;1273;25417;-83
2023/01/15 09:03:43;;;;;;;3.10;1.40;;;;;;;13.52;53.96;98197.31;266802;1280;22581;-83
2023/01/15 09:09:47;;;;;;;4.30;1.50;;;;;;;13.47;53.51;98191.46;266869;1279;26687;-82
2023/01/15 09:15:50;;;;;;;2.50;1.10;;;;;;;13.38;52.90;98191.63;266813;1277;22560;-81
2023/01/15 09:21:53;;;;;;;2.40;1.20;;;;;;;13.40;52.77;98186.65;267106;1274;22566;-81
2023/01/15 09:27:55;;;;;;;1.50;0.90;;;;;;;13.48;52.32;98175.27;267224;1279;25356;-81
2023/01/15 09:33:58;;;;;;;2.90;1.10;;;;;;;13.56;52.09;98168.73;268016;1277;22580;-81
2023/01/15 09:40:03;;;;;;;2.70;1.30;;;;;;;13.58;51.99;98164.25;268191;1276;22569;-81
2023/01/15 09:46:14;;;;;;;2.80;1.10;;;;;;;13.62;52.08;98163.10;268112;1280;22743;-80
2023/01/15 09:52:42;;;;;;;2.90;1.40;;;;;;;13.60;51.79;98155.17;267649;1279;24183;-80
2023/01/15 09:58:45;;;;;;;4.30;2.10;;;;;;;13.75;51.83;98147.63;268215;1273;22736;-80
2023/01/15 10:04:56;;;;;;;4.30;1.90;;;;;;;13.93;52.07;98151.69;266226;1275;22649;-80
2023/01/15 10:11:04;;;;;;;3.40;1.60;;;;;;;14.15;52.17;98150.42;266697;1280;24374;-79
2023/01/15 10:17:17;;;;;;;3.20;1.70;;;;;;;14.14;52.53;98140.16;266797;1280;22643;-81
2023/01/15 10:23:33;;;;;;;3.70;1.60;;;;;;;14.34;52.67;98148.82;266889;1280;25453;-80
2023/01/15 10:29:45;;;;;;;2.80;1.70;;;;;;;14.61;52.18;98148.41;266609;1280;24465;-81
2023/01/15 10:36:01;;;;;;;4.10;1.90;;;;;;;14.78;51.46;98148.83;266803;1279;22669;-81
2023/01/15 10:42:31;;;;;;;2.90;1.60;;;;;;;14.84;51.43;98144.67;266897;1279;22574;-81
2023/01/15 10:48:40;;;;;;;3.40;1.60;;;;;;;14.58;50.95;98138.86;266303;1279;22644;-80
2023/01/15 10:54:48;;;;;;;3.60;1.70;;;;;;;14.60;50.88;98134.95;266291;1279;22555;-80
2023/01/15 11:00:55;;;;;;;3.60;1.60;;;;;;;14.71;50.32;98137.06;266268;1277;25401;-81
2023/01/15 11:07:02;;;;;;;3.80;1.80;;;;;;;14.69;49.84;98121.21;266318;1279;24201;-80
2023/01/15 11:19:39;;;;;;;3.80;1.20;;;;;;;14.63;48.73;98092.37;269091;1279;22552;-80
2023/01/15 11:25:50;;;;;;;2.60;1.40;;;;;;;14.62;48.57;98087.65;267121;1279;23437;-80
2023/01/15 11:31:53;;;;;;;3.90;1.80;;;;;;;14.37;48.37;98095.06;266289;1274;24218;-80
2023/01/15 11:38:22;;;;;;;4.40;1.40;;;;;;;14.22;48.63;98092.48;266208;1275;25149;-82
2023/01/15 11:50:59;;;;;;;2.30;1.30;;;;;;;13.91;49.11;98090.30;266502;1265;25306;-80
2023/01/15 11:57:02;;;;;;;3.50;1.60;;;;;;;13.88;49.48;98075.02;266450;1259;22532;-79
2023/01/15 12:03:12;;;;;;;2.40;1.30;;;;;;;13.99;49.74;98074.70;266376;1273;22638;-79
2023/01/15 12:09:41;;;;;;;3.40;1.60;;;;;;;13.94;50.38;98058.09;265881;1270;644393;-79
2023/01/15 12:16:11;;;;;;;3.20;1.70;;;;;;;13.65;51.49;98052.48;266830;1273;22591;-80
2023/01/15 12:22:43;;;;;;;3.40;1.90;;;;;;;13.66;52.99;98035.79;266923;1260;23273;-80
2023/01/15 12:28:56;;;;;;;2.80;1.60;;;;;;;13.56;54.28;98037.05;266681;1269;26921;-80
2023/01/15 12:35:04;;;;;;;3.70;1.90;;;;;;;13.54;55.71;98023.77;266560;1264;22539;-81
2023/01/15 12:44:59;;;;;;;3.70;1.60;;;;;;;13.32;58.06;98020.20;266642;1277;24238;-80
2023/01/15 12:48:14;;;;;;;3.90;1.60;;;;;;;13.19;60.05;98013.70;267235;1278;22655;-81
2023/01/15 12:54:22;;;;;;;4.00;1.70;;;;;;;13.20;60.73;98013.20;266206;1274;22598;-81
2023/01/15 13:00:36;;;;;;;3.00;1.80;;;;;;;13.12;61.52;97999.25;266154;1268;22537;-81
2023/01/15 13:06:45;;;;;;;3.60;1.80;;;;;;;13.09;62.03;97993.80;266652;1273;22785;-78
2023/01/15 13:12:48;;;;;;;3.30;1.60;;;;;;;13.20;61.85;97978.66;267341;1273;24488;-80
2023/01/15 13:19:00;;;;;;;3.70;1.70;;;;;;;13.07;62.47;97966.72;267786;1278;22543;-80
2023/01/15 13:25:25;;;;;;;4.10;2.30;;;;;;;12.99;63.09;97964.04;267923;1277;22554;-81
2023/01/15 13:31:57;;;;;;;4.20;1.90;;;;;;;12.95;63.07;97962.27;267833;1278;25388;-81
2023/01/15 13:38:02;;;;;;;4.10;2.10;;;;;;;12.91;62.99;97953.96;267625;1279;22578;-81
2023/01/15 13:44:14;;;;;;;5.20;2.20;;;;;;;12.78;62.99;97948.38;267116;1276;24219;-82
2023/01/15 13:50:26;;;;;;;3.10;1.80;;;;;;;12.76;62.86;97946.66;267230;1280;22605;-82
2023/01/15 13:56:32;;;;;;;3.90;1.90;;;;;;;12.62;62.98;97938.20;267353;1267;24261;-81
2023/01/15 14:02:39;;;;;;;4.30;2.00;;;;;;;12.71;62.60;97943.75;267373;1279;22623;-81
2023/01/15 14:08:44;;;;;;;3.80;2.30;;;;;;;12.58;62.44;97944.73;267403;1278;22578;-81
2023/01/15 14:15:13;;;;;;;5.60;2.00;;;;;;;12.70;62.14;97948.72;267469;1280;22671;-81
2023/01/15 14:21:28;;;;;;;4.50;2.20;;;;;;;12.73;61.23;97945.25;267353;1276;22599;-81
2023/01/15 14:27:32;;;;;;;4.30;2.30;;;;;;;12.73;61.05;97930.05;267134;1277;25510;-82
2023/01/15 14:34:08;;;;;;;3.80;2.10;;;;;;;12.66;61.03;97926.70;267148;1277;22651;-82
2023/01/15 14:40:29;;;;;;;4.30;2.40;;;;;;;12.63;61.03;97929.04;266737;1270;25274;-82
2023/01/15 14:46:33;;;;;;;5.60;2.90;;;;;;;12.57;61.21;97918.64;267543;1281;22619;-84
2023/01/15 14:52:36;;;;;;;4.70;2.60;;;;;;;12.50;61.27;97918.16;267277;1281;24278;-85
2023/01/15 14:59:00;;;;;;;4.70;2.50;;;;;;;12.25;62.09;97916.77;266635;1281;22632;-85
2023/01/15 15:05:07;;;;;;;4.40;2.70;;;;;;;12.23;62.50;97911.44;266261;1281;22740;-86
2023/01/15 15:17:58;;;;;;;4.80;2.40;;;;;;;12.23;63.27;97912.77;266529;1280;22577;-86
2023/01/15 15:24:11;;;;;;;5.30;2.60;;;;;;;12.40;63.07;97912.34;267150;1281;23436;-85
2023/01/15 15:30:15;;;;;;;5.50;2.80;;;;;;;12.32;63.23;97910.35;266567;1279;22548;-82
2023/01/15 15:36:19;;;;;;;4.50;2.40;;;;;;;12.40;63.10;97907.98;266897;1263;22552;-81
2023/01/15 15:49:06;;;;;;;3.80;2.20;;;;;;;12.48;62.99;97907.00;266803;1279;24267;-83
2023/01/15 15:55:14;;;;;;;4.30;2.30;;;;;;;12.56;62.90;97901.43;266408;1277;22546;-81
2023/01/15 16:01:17;;;;;;;5.20;2.70;;;;;;;12.65;62.57;97902.29;266629;1273;23102;-82
2023/01/15 16:07:25;;;;;;;4.70;2.80;;;;;;;12.63;62.45;97904.83;266599;1279;22550;-82
2023/01/15 16:13:32;;;;;;;4.10;2.70;;;;;;;12.66;62.61;97903.09;266905;1279;22542;-82
2023/01/15 16:19:35;;;;;;;3.90;2.50;;;;;;;12.62;62.80;97903.27;266401;1273;24417;-82
2023/01/15 16:26:02;;;;;;;5.90;3.20;;;;;;;12.74;62.82;97909.39;267101;1279;25538;-89
2023/01/15 16:32:10;;;;;;;5.20;3.00;;;;;;;12.69;62.91;97916.52;267641;1274;25294;-84
2023/01/15 16:38:17;;;;;;;5.70;2.80;;;;;;;12.58;63.39;97923.98;267795;1279;22999;-83
2023/01/15 16:44:46;;;;;;;4.90;2.80;;;;;;;12.64;63.56;97930.50;267857;1279;22667;-83
2023/01/15 16:50:50;;;;;;;10.80;5.80;;;;;;;12.66;65.18;97938.48;268006;1273;22916;-86
2023/01/15 16:56:54;;;;;;;8.40;3.50;;;;;;;12.55;66.87;97941.83;267756;1279;22550;-87
2023/01/15 17:02:57;;;;;;;5.10;3.10;;;;;;;12.50;68.12;97948.02;267140;1277;25414;-82
2023/01/15 17:09:01;;;;;;;5.30;2.40;;;;;;;12.63;70.12;97956.32;267807;1273;22591;-84
2023/01/15 17:15:37;;;;;;;5.30;2.80;;;;;;;12.48;71.69;97969.92;268243;1279;22666;-87
2023/01/15 17:21:46;;;;;;;4.60;2.30;;;;;;;12.67;71.64;97987.21;267701;1279;22548;-84
2023/01/15 17:27:49;;;;;;;2.60;1.60;;;;;;;12.64;72.51;98024.66;267545;1273;22765;-84
2023/01/15 17:33:53;;;;;;;3.60;2.00;;;;;;;12.34;76.09;98070.62;266371;1279;22551;-83
2023/01/15 17:39:56;;;;;;;5.60;2.40;;;;;;;12.02;85.15;98103.75;267408;1258;22615;-83
2023/01/15 17:45:59;;;;;;;4.20;2.50;;;;;;;11.94;92.38;98122.58;267059;1272;22689;-86
2023/01/15 17:52:05;;;;;;;5.90;3.20;;;;;;;11.72;97.99;98156.11;267443;1279;25255;-87
2023/01/15 18:10:58;;;;;;;7.60;3.10;;;;;;;11.60;100.00;98187.75;266561;1276;24452;-84
2023/01/15 18:17:01;;;;;;;5.00;2.50;;;;;;;11.37;100.00;98194.75;266366;1279;24413;-83
2023/01/15 18:23:05;;;;;;;5.00;2.20;;;;;;;11.41;100.00;98201.09;266045;1279;22622;-81
2023/01/15 18:29:09;;;;;;;4.50;2.70;;;;;;;11.16;100.00;98205.06;266180;1261;22600;-83
2023/01/15 18:35:13;;;;;;;4.20;2.70;;;;;;;10.84;100.00;98206.74;266354;1279;23414;-85
2023/01/15 18:47:39;;;;;;;3.70;2.20;;;;;;;11.03;100.00;98225.23;266435;1279;24319;-84
2023/01/15 18:53:47;;;;;;;3.30;1.90;;;;;;;10.73;100.00;98214.01;267024;1279;22799;-84
2023/01/15 18:59:51;;;;;;;4.90;2.20;;;;;;;10.76;100.00;98220.60;266054;1279;22709;-84
2023/01/15 19:06:05;;;;;;;5.60;2.50;;;;;;;10.89;100.00;98228.76;266072;1279;22651;-83
2023/01/15 19:12:09;;;;;;;4.90;2.30;;;;;;;10.88;100.00;98234.06;266439;1257;22537;-85
2023/01/15 19:24:34;;;;;;;4.50;2.40;;;;;;;11.10;100.00;98249.72;265942;1279;24223;-85
2023/01/15 19:30:38;;;;;;;3.10;1.70;;;;;;;10.62;100.00;98246.30;266258;1279;22543;-84
2023/01/15 19:36:44;;;;;;;3.40;1.30;;;;;;;10.51;100.00;98260.45;266172;1279;22625;-85
2023/01/15 19:55:44;;;;;;;2.50;1.30;;;;;;;10.86;100.00;98262.23;265871;1258;24221;-86
2023/01/15 20:01:50;;;;;;;2.70;1.40;;;;;;;10.93;100.00;98260.36;266148;1261;22703;-90
2023/01/15 20:07:56;;;;;;;2.80;1.30;;;;;;;11.06;100.00;98270.02;266124;1279;22596;-85
2023/01/15 20:13:59;;;;;;;2.30;1.30;;;;;;;11.09;100.00;98277.95;266177;1280;22662;-85
2023/01/15 20:20:04;;;;;;;2.80;1.40;;;;;;;11.03;100.00;98281.14;266160;1261;22651;-86
2023/01/15 20:26:09;;;;;;;2.50;1.20;;;;;;;10.98;100.00;98280.00;266209;1260;22628;-85
2023/01/15 20:32:14;;;;;;;2.40;1.40;;;;;;;10.99;100.00;98282.27;266140;1279;25448;-86
2023/01/15 20:38:18;;;;;;;2.60;1.50;;;;;;;11.01;100.00;98278.95;266162;1279;24837;-87
2023/01/15 20:51:07;;;;;;;3.50;1.90;;;;;;;10.88;100.00;98287.30;266462;1274;23067;-85
2023/01/15 20:57:10;;;;;;;3.90;1.90;;;;;;;10.89;100.00;98283.65;266306;1279;22617;-83
2023/01/15 21:03:15;;;;;;;3.40;1.60;;;;;;;10.83;100.00;98278.16;266267;1265;22886;-86
2023/01/15 21:09:19;;;;;;;3.30;1.90;;;;;;;10.77;100.00;98274.17;266563;1279;22623;-82
2023/01/15 21:15:25;;;;;;;3.60;2.10;;;;;;;10.60;100.00;98277.73;266388;1279;23433;-86
2023/01/15 21:21:30;;;;;;;3.20;1.90;;;;;;;10.42;100.00;98274.61;267452;1279;22590;-86
2023/01/15 21:27:35;;;;;;;4.50;2.30;;;;;;;10.31;100.00;98273.09;267062;1279;25255;-84
2023/01/15 21:33:41;;;;;;;4.00;2.10;;;;;;;10.40;100.00;98273.59;267052;1276;22579;-83
2023/01/15 21:39:45;;;;;;;2.80;1.70;;;;;;;10.23;100.00;98279.42;266114;1279;22548;-82
2023/01/15 21:45:49;;;;;;;3.70;1.40;;;;;;;10.16;100.00;98282.12;266273;1279;22547;-82
2023/01/15 21:51:53;;;;;;;2.30;1.10;;;;;;;10.20;100.00;98283.40;266236;1279;25478;-84
2023/01/15 21:57:58;;;;;;;2.40;1.10;;;;;;;10.23;100.00;98279.21;266428;1264;24642;-84
2023/01/15 22:04:00;;;;;;;3.00;0.90;;;;;;;10.26;100.00;98278.23;266247;1274;23334;-85
2023/01/15 22:10:04;;;;;;;1.70;0.80;;;;;;;10.17;100.00;98278.06;266298;1272;24822;-85
2023/01/15 22:16:07;;;;;;;3.20;1.00;;;;;;;10.06;100.00;98282.20;266328;1279;24193;-86
2023/01/15 22:22:10;;;;;;;1.90;0.90;;;;;;;10.00;100.00;98279.48;266560;1273;25319;-84
2023/01/15 22:28:14;;;;;;;1.80;1.00;;;;;;;10.10;100.00;98276.72;266909;1279;22567;-84
2023/01/15 22:34:20;;;;;;;2.00;0.90;;;;;;;10.04;100.00;98280.07;266928;1277;22711;-85
2023/01/15 22:40:23;;;;;;;2.00;1.00;;;;;;;10.09;100.00;98270.48;266388;1279;22960;-84
2023/01/15 22:46:26;;;;;;;2.20;0.80;;;;;;;9.91;100.00;98270.86;266557;1273;24327;-84
2023/01/15 22:52:31;;;;;;;2.20;0.80;;;;;;;9.98;100.00;98261.95;266690;1277;22598;-85
2023/01/15 22:58:35;;;;;;;3.30;0.90;;;;;;;9.79;100.00;98247.64;266457;1279;26700;-84
2023/01/15 23:04:37;;;;;;;1.80;0.80;;;;;;;10.00;100.00;98253.76;266660;1279;25601;-85
2023/01/15 23:10:44;;;;;;;2.00;0.90;;;;;;;10.03;100.00;98256.32;266561;1258;22848;-85
2023/01/15 23:16:48;;;;;;;1.30;0.80;;;;;;;9.74;100.00;98252.67;266357;1279;22555;-85
2023/01/15 23:22:51;;;;;;;1.50;0.80;;;;;;;9.62;100.00;98252.33;266557;1279;24239;-85
2023/01/15 23:28:54;;;;;;;2.00;1.00;;;;;;;9.56;100.00;98250.36;266638;1279;25122;-84
2023/01/15 23:35:07;;;;;;;2.00;1.00;;;;;;;9.57;100.00;98252.14;266369;1279;25269;-84
2023/01/15 23:41:16;;;;;;;2.70;1.00;;;;;;;9.64;100.00;98241.02;266179;1274;22605;-85
2023/01/15 23:47:22;;;;;;;1.50;0.80;;;;;;;9.54;100.00;98244.95;266549;1279;22665;-85
2023/01/15 23:53:24;;;;;;;1.80;0.70;;;;;;;9.43;100.00;98238.93;266697;1279;22571;-85
2023/01/15 23:59:28;;;;;;;1.20;0.70;;;;;;;9.50;100.00;98229.77;266731;1265;26260;-85
